sensor_id;sensor_type;location;lat;lon;timestamp;P1;durP1;ratioP1;P2;durP2;ratioP2
53064;SDS011;38948;48.376;-4.312;2022-12-18T00:02:16;4.00;;;2.38;;
53064;SDS011;38948;48.376;-4.312;2022-12-18T00:04:41;3.08;;;1.85;;
53064;SDS011;38948;48.376;-4.312;2022-12-18T00:07:07;3.88;;;2.17;;
53064;SDS011;38948;48.376;-4.312;2022-12-18T00:09:33;4.43;;;2.20;;
53064;SDS011;38948;48.376;-4.312;2022-12-18T00:11:59;3.92;;;2.40;;
53064;SDS011;38948;48.376;-4.312;2022-12-18T00:14:25;4.13;;;2.45;;
53064;SDS011;38948;48.376;-4.312;2022-12-18T00:16:50;3.65;;;2.22;;
53064;SDS011;38948;48.376;-4.312;2022-12-18T00:19:16;4.05;;;2.60;;
53064;SDS011;38948;48.376;-4.312;2022-12-18T00:21:42;4.40;;;2.45;;
53064;SDS011;38948;48.376;-4.312;2022-12-18T00:24:09;4.22;;;2.33;;
53064;SDS011;38948;48.376;-4.312;2022-12-18T00:26:37;3.83;;;2.13;;
53064;SDS011;38948;48.376;-4.312;2022-12-18T00:29:09;4.95;;;2.30;;
53064;SDS011;38948;48.376;-4.312;2022-12-18T00:31:38;4.65;;;2.50;;
53064;SDS011;38948;48.376;-4.312;2022-12-18T00:34:04;3.20;;;2.13;;
53064;SDS011;38948;48.376;-4.312;2022-12-18T00:36:32;3.78;;;2.20;;
53064;SDS011;38948;48.376;-4.312;2022-12-18T00:39:02;3.95;;;2.35;;
53064;SDS011;38948;48.376;-4.312;2022-12-18T00:41:29;3.38;;;2.05;;
53064;SDS011;38948;48.376;-4.312;2022-12-18T00:44:14;5.10;;;2.63;;
53064;SDS011;38948;48.376;-4.312;2022-12-18T00:46:41;3.65;;;1.95;;
53064;SDS011;38948;48.376;-4.312;2022-12-18T00:49:08;3.88;;;2.20;;
53064;SDS011;38948;48.376;-4.312;2022-12-18T00:51:34;4.25;;;2.45;;
53064;SDS011;38948;48.376;-4.312;2022-12-18T00:54:00;3.38;;;2.13;;
53064;SDS011;38948;48.376;-4.312;2022-12-18T00:56:26;3.53;;;1.83;;
53064;SDS011;38948;48.376;-4.312;2022-12-18T00:58:52;4.55;;;2.17;;
53064;SDS011;38948;48.376;-4.312;2022-12-18T01:01:17;4.82;;;2.40;;
53064;SDS011;38948;48.376;-4.312;2022-12-18T01:03:43;3.25;;;1.92;;
53064;SDS011;38948;48.376;-4.312;2022-12-18T01:06:13;4.28;;;2.20;;
53064;SDS011;38948;48.376;-4.312;2022-12-18T01:08:39;3.40;;;2.17;;
53064;SDS011;38948;48.376;-4.312;2022-12-18T01:11:09;3.63;;;2.10;;
53064;SDS011;38948;48.376;-4.312;2022-12-18T01:13:40;3.88;;;2.47;;
53064;SDS011;38948;48.376;-4.312;2022-12-18T01:16:05;3.92;;;2.10;;
53064;SDS011;38948;48.376;-4.312;2022-12-18T01:18:31;3.75;;;2.03;;
53064;SDS011;38948;48.376;-4.312;2022-12-18T01:20:58;3.35;;;1.85;;
53064;SDS011;38948;48.376;-4.312;2022-12-18T01:23:24;4.15;;;2.30;;
53064;SDS011;38948;48.376;-4.312;2022-12-18T01:25:50;4.53;;;2.40;;
53064;SDS011;38948;48.376;-4.312;2022-12-18T01:28:15;4.13;;;2.50;;
53064;SDS011;38948;48.376;-4.312;2022-12-18T01:30:41;4.60;;;2.15;;
53064;SDS011;38948;48.376;-4.312;2022-12-18T01:33:07;4.22;;;2.03;;
53064;SDS011;38948;48.376;-4.312;2022-12-18T01:35:32;3.05;;;2.00;;
53064;SDS011;38948;48.376;-4.312;2022-12-18T01:37:58;5.43;;;2.33;;
53064;SDS011;38948;48.376;-4.312;2022-12-18T01:40:24;6.60;;;2.50;;
53064;SDS011;38948;48.376;-4.312;2022-12-18T01:42:53;3.80;;;2.60;;
53064;SDS011;38948;48.376;-4.312;2022-12-18T01:45:23;4.68;;;2.28;;
53064;SDS011;38948;48.376;-4.312;2022-12-18T01:50:34;4.30;;;2.63;;
53064;SDS011;38948;48.376;-4.312;2022-12-18T01:55:40;4.32;;;2.22;;
53064;SDS011;38948;48.376;-4.312;2022-12-18T01:58:10;4.30;;;2.70;;
53064;SDS011;38948;48.376;-4.312;2022-12-18T02:00:36;4.70;;;2.55;;
53064;SDS011;38948;48.376;-4.312;2022-12-18T02:03:02;4.55;;;2.03;;
53064;SDS011;38948;48.376;-4.312;2022-12-18T02:10:46;4.07;;;2.40;;
53064;SDS011;38948;48.376;-4.312;2022-12-18T02:18:53;4.05;;;2.30;;
53064;SDS011;38948;48.376;-4.312;2022-12-18T02:26:59;3.65;;;2.08;;
53064;SDS011;38948;48.376;-4.312;2022-12-18T02:29:31;4.05;;;2.28;;
53064;SDS011;38948;48.376;-4.312;2022-12-18T02:32:03;4.10;;;2.35;;
53064;SDS011;38948;48.376;-4.312;2022-12-18T02:34:36;2.95;;;2.00;;
53064;SDS011;38948;48.376;-4.312;2022-12-18T02:37:05;4.45;;;2.47;;
53064;SDS011;38948;48.376;-4.312;2022-12-18T02:39:36;4.90;;;2.22;;
53064;SDS011;38948;48.376;-4.312;2022-12-18T02:42:03;3.90;;;2.05;;
53064;SDS011;38948;48.376;-4.312;2022-12-18T02:44:33;3.03;;;2.03;;
53064;SDS011;38948;48.376;-4.312;2022-12-18T02:47:13;4.15;;;2.30;;
53064;SDS011;38948;48.376;-4.312;2022-12-18T03:00:23;3.85;;;2.35;;
53064;SDS011;38948;48.376;-4.312;2022-12-18T03:03:10;3.65;;;2.03;;
53064;SDS011;38948;48.376;-4.312;2022-12-18T03:06:00;3.17;;;2.03;;
53064;SDS011;38948;48.376;-4.312;2022-12-18T03:08:38;3.97;;;2.10;;
53064;SDS011;38948;48.376;-4.312;2022-12-18T03:11:09;3.20;;;1.98;;
53064;SDS011;38948;48.376;-4.312;2022-12-18T03:13:41;3.72;;;2.05;;
53064;SDS011;38948;48.376;-4.312;2022-12-18T03:16:17;3.63;;;2.25;;
53064;SDS011;38948;48.376;-4.312;2022-12-18T03:21:17;3.08;;;1.95;;
53064;SDS011;38948;48.376;-4.312;2022-12-18T03:23:48;3.55;;;2.00;;
53064;SDS011;38948;48.376;-4.312;2022-12-18T03:26:17;2.90;;;1.85;;
53064;SDS011;38948;48.376;-4.312;2022-12-18T03:28:53;4.55;;;2.65;;
53064;SDS011;38948;48.376;-4.312;2022-12-18T03:31:28;3.45;;;1.98;;
53064;SDS011;38948;48.376;-4.312;2022-12-18T03:34:01;3.42;;;2.10;;
53064;SDS011;38948;48.376;-4.312;2022-12-18T03:36:30;3.50;;;2.20;;
53064;SDS011;38948;48.376;-4.312;2022-12-18T03:38:56;4.18;;;2.40;;
53064;SDS011;38948;48.376;-4.312;2022-12-18T03:41:41;4.60;;;2.30;;
53064;SDS011;38948;48.376;-4.312;2022-12-18T03:47:32;4.30;;;2.03;;
53064;SDS011;38948;48.376;-4.312;2022-12-18T03:50:19;4.45;;;2.22;;
53064;SDS011;38948;48.376;-4.312;2022-12-18T03:52:53;4.18;;;2.40;;
53064;SDS011;38948;48.376;-4.312;2022-12-18T03:55:40;4.13;;;2.33;;
53064;SDS011;38948;48.376;-4.312;2022-12-18T03:58:08;4.03;;;2.22;;
53064;SDS011;38948;48.376;-4.312;2022-12-18T04:00:38;3.83;;;2.15;;
53064;SDS011;38948;48.376;-4.312;2022-12-18T04:03:05;3.60;;;1.90;;
53064;SDS011;38948;48.376;-4.312;2022-12-18T04:05:33;4.90;;;2.35;;
53064;SDS011;38948;48.376;-4.312;2022-12-18T04:08:02;3.50;;;2.28;;
53064;SDS011;38948;48.376;-4.312;2022-12-18T04:10:28;3.58;;;1.92;;
53064;SDS011;38948;48.376;-4.312;2022-12-18T04:12:55;3.67;;;2.38;;
53064;SDS011;38948;48.376;-4.312;2022-12-18T04:15:22;3.75;;;2.22;;
53064;SDS011;38948;48.376;-4.312;2022-12-18T04:17:48;2.97;;;1.98;;
53064;SDS011;38948;48.376;-4.312;2022-12-18T04:20:15;3.30;;;2.10;;
53064;SDS011;38948;48.376;-4.312;2022-12-18T04:22:41;4.43;;;2.20;;
53064;SDS011;38948;48.376;-4.312;2022-12-18T04:25:08;3.85;;;2.20;;
53064;SDS011;38948;48.376;-4.312;2022-12-18T04:27:37;4.35;;;2.05;;
53064;SDS011;38948;48.376;-4.312;2022-12-18T04:30:03;3.63;;;2.20;;
53064;SDS011;38948;48.376;-4.312;2022-12-18T04:32:29;3.80;;;2.10;;
53064;SDS011;38948;48.376;-4.312;2022-12-18T04:34:55;3.92;;;2.22;;
53064;SDS011;38948;48.376;-4.312;2022-12-18T04:37:21;5.13;;;2.40;;
53064;SDS011;38948;48.376;-4.312;2022-12-18T04:39:47;4.13;;;2.33;;
53064;SDS011;38948;48.376;-4.312;2022-12-18T04:42:12;3.60;;;2.30;;
53064;SDS011;38948;48.376;-4.312;2022-12-18T04:44:38;3.38;;;2.05;;
53064;SDS011;38948;48.376;-4.312;2022-12-18T04:47:04;3.00;;;2.03;;
53064;SDS011;38948;48.376;-4.312;2022-12-18T04:49:30;4.70;;;2.28;;
53064;SDS011;38948;48.376;-4.312;2022-12-18T04:51:58;3.35;;;2.10;;
53064;SDS011;38948;48.376;-4.312;2022-12-18T04:54:24;3.63;;;1.98;;
53064;SDS011;38948;48.376;-4.312;2022-12-18T04:56:50;4.07;;;1.90;;
53064;SDS011;38948;48.376;-4.312;2022-12-18T04:59:16;4.00;;;2.17;;
53064;SDS011;38948;48.376;-4.312;2022-12-18T05:01:42;3.33;;;2.10;;
53064;SDS011;38948;48.376;-4.312;2022-12-18T05:04:07;4.07;;;2.03;;
53064;SDS011;38948;48.376;-4.312;2022-12-18T05:06:33;3.35;;;2.00;;
53064;SDS011;38948;48.376;-4.312;2022-12-18T05:08:59;2.55;;;1.75;;
53064;SDS011;38948;48.376;-4.312;2022-12-18T05:11:25;3.95;;;2.30;;
53064;SDS011;38948;48.376;-4.312;2022-12-18T05:13:51;5.35;;;2.00;;
53064;SDS011;38948;48.376;-4.312;2022-12-18T05:16:16;3.03;;;2.10;;
53064;SDS011;38948;48.376;-4.312;2022-12-18T05:18:42;4.18;;;2.08;;
53064;SDS011;38948;48.376;-4.312;2022-12-18T05:21:08;2.50;;;1.70;;
53064;SDS011;38948;48.376;-4.312;2022-12-18T05:23:34;3.17;;;2.13;;
53064;SDS011;38948;48.376;-4.312;2022-12-18T05:26:01;2.97;;;2.05;;
53064;SDS011;38948;48.376;-4.312;2022-12-18T05:28:29;3.65;;;2.20;;
53064;SDS011;38948;48.376;-4.312;2022-12-18T05:30:58;3.22;;;1.75;;
53064;SDS011;38948;48.376;-4.312;2022-12-18T05:33:26;2.65;;;1.73;;
53064;SDS011;38948;48.376;-4.312;2022-12-18T05:35:55;3.75;;;2.10;;
53064;SDS011;38948;48.376;-4.312;2022-12-18T05:38:23;3.22;;;1.98;;
53064;SDS011;38948;48.376;-4.312;2022-12-18T05:40:51;3.13;;;1.83;;
53064;SDS011;38948;48.376;-4.312;2022-12-18T05:43:18;3.67;;;1.95;;
53064;SDS011;38948;48.376;-4.312;2022-12-18T05:45:48;2.85;;;1.80;;
53064;SDS011;38948;48.376;-4.312;2022-12-18T05:48:14;2.70;;;1.80;;
53064;SDS011;38948;48.376;-4.312;2022-12-18T05:50:41;3.45;;;1.90;;
53064;SDS011;38948;48.376;-4.312;2022-12-18T05:53:10;3.13;;;1.70;;
53064;SDS011;38948;48.376;-4.312;2022-12-18T05:55:37;4.50;;;2.03;;
53064;SDS011;38948;48.376;-4.312;2022-12-18T05:58:04;3.40;;;2.10;;
53064;SDS011;38948;48.376;-4.312;2022-12-18T06:00:32;3.42;;;1.80;;
53064;SDS011;38948;48.376;-4.312;2022-12-18T06:02:59;3.10;;;1.80;;
53064;SDS011;38948;48.376;-4.312;2022-12-18T06:05:26;3.38;;;2.10;;
53064;SDS011;38948;48.376;-4.312;2022-12-18T06:07:52;2.90;;;1.58;;
53064;SDS011;38948;48.376;-4.312;2022-12-18T06:10:18;2.55;;;1.52;;
53064;SDS011;38948;48.376;-4.312;2022-12-18T06:12:43;3.20;;;1.67;;
53064;SDS011;38948;48.376;-4.312;2022-12-18T06:15:09;3.17;;;1.90;;
53064;SDS011;38948;48.376;-4.312;2022-12-18T06:17:35;2.88;;;1.70;;
53064;SDS011;38948;48.376;-4.312;2022-12-18T06:20:02;2.97;;;1.50;;
53064;SDS011;38948;48.376;-4.312;2022-12-18T06:22:30;4.63;;;1.88;;
53064;SDS011;38948;48.376;-4.312;2022-12-18T06:24:57;2.50;;;1.58;;
53064;SDS011;38948;48.376;-4.312;2022-12-18T06:27:22;3.28;;;1.80;;
53064;SDS011;38948;48.376;-4.312;2022-12-18T06:29:48;2.58;;;1.55;;
53064;SDS011;38948;48.376;-4.312;2022-12-18T06:32:14;2.47;;;1.60;;
53064;SDS011;38948;48.376;-4.312;2022-12-18T06:34:39;2.65;;;1.67;;
53064;SDS011;38948;48.376;-4.312;2022-12-18T06:37:06;2.60;;;1.60;;
53064;SDS011;38948;48.376;-4.312;2022-12-18T06:39:34;2.80;;;1.73;;
53064;SDS011;38948;48.376;-4.312;2022-12-18T06:42:00;2.97;;;1.90;;
53064;SDS011;38948;48.376;-4.312;2022-12-18T06:44:26;2.70;;;1.60;;
53064;SDS011;38948;48.376;-4.312;2022-12-18T06:46:51;3.67;;;1.77;;
53064;SDS011;38948;48.376;-4.312;2022-12-18T06:49:17;2.88;;;1.73;;
53064;SDS011;38948;48.376;-4.312;2022-12-18T06:51:43;2.70;;;1.50;;
53064;SDS011;38948;48.376;-4.312;2022-12-18T06:54:09;2.38;;;1.60;;
53064;SDS011;38948;48.376;-4.312;2022-12-18T06:56:34;2.78;;;1.60;;
53064;SDS011;38948;48.376;-4.312;2022-12-18T06:59:00;2.53;;;1.70;;
53064;SDS011;38948;48.376;-4.312;2022-12-18T07:01:26;3.50;;;1.88;;
53064;SDS011;38948;48.376;-4.312;2022-12-18T07:03:53;2.05;;;1.42;;
53064;SDS011;38948;48.376;-4.312;2022-12-18T07:06:20;2.25;;;1.60;;
53064;SDS011;38948;48.376;-4.312;2022-12-18T07:08:47;2.75;;;1.48;;
53064;SDS011;38948;48.376;-4.312;2022-12-18T07:11:14;2.05;;;1.38;;
53064;SDS011;38948;48.376;-4.312;2022-12-18T07:13:41;1.75;;;1.27;;
53064;SDS011;38948;48.376;-4.312;2022-12-18T07:16:09;2.08;;;1.45;;
53064;SDS011;38948;48.376;-4.312;2022-12-18T07:18:39;3.80;;;1.75;;
53064;SDS011;38948;48.376;-4.312;2022-12-18T07:21:06;2.35;;;1.40;;
53064;SDS011;38948;48.376;-4.312;2022-12-18T07:23:34;2.30;;;1.30;;
53064;SDS011;38948;48.376;-4.312;2022-12-18T07:26:03;2.42;;;1.40;;
53064;SDS011;38948;48.376;-4.312;2022-12-18T07:28:31;2.35;;;1.40;;
53064;SDS011;38948;48.376;-4.312;2022-12-18T07:30:58;2.67;;;1.85;;
53064;SDS011;38948;48.376;-4.312;2022-12-18T07:33:27;1.40;;;1.20;;
53064;SDS011;38948;48.376;-4.312;2022-12-18T07:35:53;2.38;;;1.42;;
53064;SDS011;38948;48.376;-4.312;2022-12-18T07:38:18;2.00;;;1.48;;
53064;SDS011;38948;48.376;-4.312;2022-12-18T07:40:44;2.67;;;1.38;;
53064;SDS011;38948;48.376;-4.312;2022-12-18T07:43:10;2.60;;;1.60;;
53064;SDS011;38948;48.376;-4.312;2022-12-18T07:45:35;2.00;;;1.40;;
53064;SDS011;38948;48.376;-4.312;2022-12-18T07:48:01;2.20;;;1.50;;
53064;SDS011;38948;48.376;-4.312;2022-12-18T07:50:27;1.88;;;1.42;;
53064;SDS011;38948;48.376;-4.312;2022-12-18T07:52:53;1.92;;;1.27;;
53064;SDS011;38948;48.376;-4.312;2022-12-18T07:55:18;2.13;;;1.42;;
53064;SDS011;38948;48.376;-4.312;2022-12-18T07:57:44;1.83;;;1.05;;
53064;SDS011;38948;48.376;-4.312;2022-12-18T08:00:10;2.33;;;1.30;;
53064;SDS011;38948;48.376;-4.312;2022-12-18T08:02:37;1.10;;;1.00;;
53064;SDS011;38948;48.376;-4.312;2022-12-18T08:05:03;1.85;;;1.23;;
53064;SDS011;38948;48.376;-4.312;2022-12-18T08:07:29;1.80;;;1.00;;
53064;SDS011;38948;48.376;-4.312;2022-12-18T08:09:55;1.00;;;0.90;;
53064;SDS011;38948;48.376;-4.312;2022-12-18T08:12:20;2.20;;;1.20;;
53064;SDS011;38948;48.376;-4.312;2022-12-18T08:14:46;1.27;;;1.10;;
53064;SDS011;38948;48.376;-4.312;2022-12-18T08:17:12;1.23;;;1.02;;
53064;SDS011;38948;48.376;-4.312;2022-12-18T08:19:37;1.98;;;1.08;;
53064;SDS011;38948;48.376;-4.312;2022-12-18T08:22:03;2.70;;;1.20;;
53064;SDS011;38948;48.376;-4.312;2022-12-18T08:24:29;2.60;;;1.42;;
53064;SDS011;38948;48.376;-4.312;2022-12-18T08:26:55;2.03;;;1.00;;
53064;SDS011;38948;48.376;-4.312;2022-12-18T08:29:22;0.93;;;0.80;;
53064;SDS011;38948;48.376;-4.312;2022-12-18T08:31:48;2.17;;;1.50;;
53064;SDS011;38948;48.376;-4.312;2022-12-18T08:34:14;1.83;;;1.15;;
53064;SDS011;38948;48.376;-4.312;2022-12-18T08:36:39;2.00;;;1.40;;
53064;SDS011;38948;48.376;-4.312;2022-12-18T08:39:05;2.28;;;1.13;;
53064;SDS011;38948;48.376;-4.312;2022-12-18T08:41:31;1.38;;;1.10;;
53064;SDS011;38948;48.376;-4.312;2022-12-18T08:43:57;1.05;;;0.85;;
53064;SDS011;38948;48.376;-4.312;2022-12-18T08:46:42;1.15;;;1.00;;
53064;SDS011;38948;48.376;-4.312;2022-12-18T08:49:09;1.35;;;1.00;;
53064;SDS011;38948;48.376;-4.312;2022-12-18T08:51:36;2.08;;;1.10;;
53064;SDS011;38948;48.376;-4.312;2022-12-18T08:54:02;3.75;;;1.00;;
53064;SDS011;38948;48.376;-4.312;2022-12-18T08:56:28;1.30;;;0.93;;
53064;SDS011;38948;48.376;-4.312;2022-12-18T08:58:55;4.05;;;1.08;;
53064;SDS011;38948;48.376;-4.312;2022-12-18T09:01:21;1.55;;;0.80;;
53064;SDS011;38948;48.376;-4.312;2022-12-18T09:03:48;1.60;;;1.00;;
53064;SDS011;38948;48.376;-4.312;2022-12-18T09:06:17;1.65;;;1.02;;
53064;SDS011;38948;48.376;-4.312;2022-12-18T09:08:44;3.65;;;1.27;;
53064;SDS011;38948;48.376;-4.312;2022-12-18T09:11:20;1.70;;;1.02;;
53064;SDS011;38948;48.376;-4.312;2022-12-18T09:13:47;1.65;;;1.20;;
53064;SDS011;38948;48.376;-4.312;2022-12-18T09:16:14;2.65;;;1.40;;
53064;SDS011;38948;48.376;-4.312;2022-12-18T09:18:40;1.67;;;1.30;;
53064;SDS011;38948;48.376;-4.312;2022-12-18T09:21:17;5.13;;;2.20;;
53064;SDS011;38948;48.376;-4.312;2022-12-18T09:23:51;2.00;;;1.40;;
53064;SDS011;38948;48.376;-4.312;2022-12-18T09:26:18;1.98;;;1.27;;
53064;SDS011;38948;48.376;-4.312;2022-12-18T09:28:44;2.00;;;1.20;;
53064;SDS011;38948;48.376;-4.312;2022-12-18T09:31:13;6.43;;;1.90;;
53064;SDS011;38948;48.376;-4.312;2022-12-18T09:33:39;5.18;;;1.63;;
53064;SDS011;38948;48.376;-4.312;2022-12-18T09:36:06;1.90;;;1.30;;
53064;SDS011;38948;48.376;-4.312;2022-12-18T09:38:34;3.75;;;1.40;;
53064;SDS011;38948;48.376;-4.312;2022-12-18T09:41:04;3.67;;;1.88;;
53064;SDS011;38948;48.376;-4.312;2022-12-18T09:43:50;3.35;;;1.70;;
53064;SDS011;38948;48.376;-4.312;2022-12-18T09:46:20;2.05;;;1.42;;
53064;SDS011;38948;48.376;-4.312;2022-12-18T09:48:52;3.20;;;1.75;;
53064;SDS011;38948;48.376;-4.312;2022-12-18T09:51:27;2.97;;;1.55;;
53064;SDS011;38948;48.376;-4.312;2022-12-18T09:53:59;2.65;;;1.60;;
53064;SDS011;38948;48.376;-4.312;2022-12-18T09:56:30;3.58;;;1.52;;
53064;SDS011;38948;48.376;-4.312;2022-12-18T09:59:02;4.68;;;1.70;;
53064;SDS011;38948;48.376;-4.312;2022-12-18T10:01:29;2.55;;;1.60;;
53064;SDS011;38948;48.376;-4.312;2022-12-18T10:03:56;2.10;;;1.27;;
53064;SDS011;38948;48.376;-4.312;2022-12-18T10:06:28;2.15;;;1.30;;
53064;SDS011;38948;48.376;-4.312;2022-12-18T10:09:06;2.70;;;1.33;;
53064;SDS011;38948;48.376;-4.312;2022-12-18T10:14:23;4.65;;;1.60;;
53064;SDS011;38948;48.376;-4.312;2022-12-18T10:20:38;3.30;;;1.08;;
53064;SDS011;38948;48.376;-4.312;2022-12-18T10:28:30;2.38;;;1.25;;
53064;SDS011;38948;48.376;-4.312;2022-12-18T10:30:58;6.22;;;1.25;;
53064;SDS011;38948;48.376;-4.312;2022-12-18T10:33:28;5.55;;;1.15;;
53064;SDS011;38948;48.376;-4.312;2022-12-18T10:35:55;2.75;;;1.02;;
53064;SDS011;38948;48.376;-4.312;2022-12-18T10:38:22;4.13;;;1.75;;
53064;SDS011;38948;48.376;-4.312;2022-12-18T10:43:27;3.17;;;1.20;;
53064;SDS011;38948;48.376;-4.312;2022-12-18T10:45:59;3.35;;;1.25;;
53064;SDS011;38948;48.376;-4.312;2022-12-18T10:48:28;3.85;;;1.00;;
53064;SDS011;38948;48.376;-4.312;2022-12-18T10:50:55;2.15;;;1.00;;
53064;SDS011;38948;48.376;-4.312;2022-12-18T10:53:23;2.83;;;1.10;;
53064;SDS011;38948;48.376;-4.312;2022-12-18T10:55:57;2.13;;;1.20;;
53064;SDS011;38948;48.376;-4.312;2022-12-18T11:01:05;2.55;;;1.27;;
53064;SDS011;38948;48.376;-4.312;2022-12-18T11:06:21;1.85;;;1.08;;
53064;SDS011;38948;48.376;-4.312;2022-12-18T11:09:00;1.90;;;1.00;;
53064;SDS011;38948;48.376;-4.312;2022-12-18T11:11:27;2.45;;;0.90;;
53064;SDS011;38948;48.376;-4.312;2022-12-18T11:16:23;1.90;;;0.90;;
53064;SDS011;38948;48.376;-4.312;2022-12-18T11:18:50;1.77;;;0.82;;
53064;SDS011;38948;48.376;-4.312;2022-12-18T11:21:15;2.67;;;1.02;;
53064;SDS011;38948;48.376;-4.312;2022-12-18T11:26:17;1.50;;;0.80;;
53064;SDS011;38948;48.376;-4.312;2022-12-18T11:28:47;1.85;;;0.88;;
53064;SDS011;38948;48.376;-4.312;2022-12-18T11:36:38;1.42;;;0.80;;
53064;SDS011;38948;48.376;-4.312;2022-12-18T11:39:30;2.53;;;1.20;;
53064;SDS011;38948;48.376;-4.312;2022-12-18T11:47:25;2.95;;;1.05;;
53064;SDS011;38948;48.376;-4.312;2022-12-18T11:49:56;2.28;;;0.98;;
53064;SDS011;38948;48.376;-4.312;2022-12-18T11:52:33;1.13;;;0.73;;
53064;SDS011;38948;48.376;-4.312;2022-12-18T11:55:37;2.42;;;1.02;;
53064;SDS011;38948;48.376;-4.312;2022-12-18T11:58:03;2.95;;;0.90;;
53064;SDS011;38948;48.376;-4.312;2022-12-18T12:00:49;2.55;;;0.90;;
53064;SDS011;38948;48.376;-4.312;2022-12-18T12:09:24;2.72;;;0.85;;
53064;SDS011;38948;48.376;-4.312;2022-12-18T12:14:44;4.20;;;1.25;;
53064;SDS011;38948;48.376;-4.312;2022-12-18T12:17:35;2.33;;;0.80;;
53064;SDS011;38948;48.376;-4.312;2022-12-18T12:31:19;1.20;;;0.80;;
53064;SDS011;38948;48.376;-4.312;2022-12-18T12:33:55;1.20;;;0.70;;
53064;SDS011;38948;48.376;-4.312;2022-12-18T12:36:52;1.08;;;0.80;;
53064;SDS011;38948;48.376;-4.312;2022-12-18T12:39:39;2.05;;;1.05;;
53064;SDS011;38948;48.376;-4.312;2022-12-18T12:42:27;1.42;;;0.60;;
53064;SDS011;38948;48.376;-4.312;2022-12-18T12:48:55;1.50;;;0.70;;
53064;SDS011;38948;48.376;-4.312;2022-12-18T12:51:19;1.48;;;0.70;;
53064;SDS011;38948;48.376;-4.312;2022-12-18T12:53:48;3.88;;;0.70;;
53064;SDS011;38948;48.376;-4.312;2022-12-18T12:56:16;1.88;;;0.80;;
53064;SDS011;38948;48.376;-4.312;2022-12-18T12:58:50;1.73;;;0.98;;
53064;SDS011;38948;48.376;-4.312;2022-12-18T13:12:57;2.33;;;0.70;;
53064;SDS011;38948;48.376;-4.312;2022-12-18T13:15:41;0.88;;;0.60;;
53064;SDS011;38948;48.376;-4.312;2022-12-18T13:20:37;3.35;;;0.95;;
53064;SDS011;38948;48.376;-4.312;2022-12-18T13:25:48;2.35;;;0.80;;
53064;SDS011;38948;48.376;-4.312;2022-12-18T13:31:10;1.77;;;0.80;;
53064;SDS011;38948;48.376;-4.312;2022-12-18T13:33:36;1.73;;;0.90;;
53064;SDS011;38948;48.376;-4.312;2022-12-18T13:36:14;1.33;;;0.65;;
53064;SDS011;38948;48.376;-4.312;2022-12-18T13:41:36;1.60;;;0.55;;
53064;SDS011;38948;48.376;-4.312;2022-12-18T13:44:12;1.60;;;0.73;;
53064;SDS011;38948;48.376;-4.312;2022-12-18T13:46:51;1.05;;;0.80;;
53064;SDS011;38948;48.376;-4.312;2022-12-18T13:49:22;1.88;;;0.80;;
53064;SDS011;38948;48.376;-4.312;2022-12-18T13:52:00;1.08;;;0.52;;
53064;SDS011;38948;48.376;-4.312;2022-12-18T13:54:32;1.17;;;0.70;;
53064;SDS011;38948;48.376;-4.312;2022-12-18T13:57:01;2.35;;;0.85;;
53064;SDS011;38948;48.376;-4.312;2022-12-18T13:59:34;3.08;;;0.75;;
53064;SDS011;38948;48.376;-4.312;2022-12-18T14:02:09;0.90;;;0.52;;
53064;SDS011;38948;48.376;-4.312;2022-12-18T14:04:39;2.72;;;0.80;;
53064;SDS011;38948;48.376;-4.312;2022-12-18T14:07:10;1.92;;;0.80;;
53064;SDS011;38948;48.376;-4.312;2022-12-18T14:09:45;2.05;;;0.70;;
53064;SDS011;38948;48.376;-4.312;2022-12-18T14:12:17;1.58;;;0.57;;
53064;SDS011;38948;48.376;-4.312;2022-12-18T14:15:20;2.40;;;0.80;;
53064;SDS011;38948;48.376;-4.312;2022-12-18T14:17:49;1.55;;;0.60;;
53064;SDS011;38948;48.376;-4.312;2022-12-18T14:20:15;2.95;;;0.57;;
53064;SDS011;38948;48.376;-4.312;2022-12-18T14:22:46;1.38;;;0.68;;
53064;SDS011;38948;48.376;-4.312;2022-12-18T14:25:17;1.35;;;0.65;;
53064;SDS011;38948;48.376;-4.312;2022-12-18T14:27:50;0.60;;;0.60;;
53064;SDS011;38948;48.376;-4.312;2022-12-18T14:30:31;4.15;;;0.80;;
53064;SDS011;38948;48.376;-4.312;2022-12-18T14:33:04;3.55;;;0.63;;
53064;SDS011;38948;48.376;-4.312;2022-12-18T14:35:38;1.13;;;0.50;;
53064;SDS011;38948;48.376;-4.312;2022-12-18T14:38:29;1.45;;;0.52;;
53064;SDS011;38948;48.376;-4.312;2022-12-18T14:43:36;1.33;;;0.57;;
53064;SDS011;38948;48.376;-4.312;2022-12-18T14:46:04;1.98;;;0.82;;
53064;SDS011;38948;48.376;-4.312;2022-12-18T14:48:50;0.93;;;0.60;;
53064;SDS011;38948;48.376;-4.312;2022-12-18T14:51:23;2.83;;;0.57;;
53064;SDS011;38948;48.376;-4.312;2022-12-18T14:53:55;1.83;;;0.70;;
53064;SDS011;38948;48.376;-4.312;2022-12-18T14:56:27;2.78;;;0.80;;
53064;SDS011;38948;48.376;-4.312;2022-12-18T15:01:47;2.90;;;0.65;;
53064;SDS011;38948;48.376;-4.312;2022-12-18T15:04:27;2.13;;;0.73;;
53064;SDS011;38948;48.376;-4.312;2022-12-18T15:07:08;4.47;;;1.15;;
53064;SDS011;38948;48.376;-4.312;2022-12-18T15:09:40;1.35;;;0.80;;
53064;SDS011;38948;48.376;-4.312;2022-12-18T15:13:05;3.95;;;0.77;;
53064;SDS011;38948;48.376;-4.312;2022-12-18T15:15:01;1.63;;;0.73;;
53064;SDS011;38948;48.376;-4.312;2022-12-18T15:17:28;5.72;;;0.98;;
53064;SDS011;38948;48.376;-4.312;2022-12-18T15:20:02;2.28;;;0.90;;
53064;SDS011;38948;48.376;-4.312;2022-12-18T15:22:35;4.55;;;0.80;;
53064;SDS011;38948;48.376;-4.312;2022-12-18T15:25:02;3.90;;;0.70;;
53064;SDS011;38948;48.376;-4.312;2022-12-18T15:27:45;3.45;;;0.63;;
53064;SDS011;38948;48.376;-4.312;2022-12-18T15:30:16;3.33;;;0.70;;
53064;SDS011;38948;48.376;-4.312;2022-12-18T15:32:44;2.60;;;0.80;;
53064;SDS011;38948;48.376;-4.312;2022-12-18T15:37:39;3.85;;;0.77;;
53064;SDS011;38948;48.376;-4.312;2022-12-18T15:40:05;1.10;;;0.60;;
53064;SDS011;38948;48.376;-4.312;2022-12-18T15:42:33;3.08;;;0.70;;
53064;SDS011;38948;48.376;-4.312;2022-12-18T15:45:18;2.72;;;1.00;;
53064;SDS011;38948;48.376;-4.312;2022-12-18T15:47:44;1.70;;;0.52;;
53064;SDS011;38948;48.376;-4.312;2022-12-18T15:50:10;5.13;;;0.93;;
53064;SDS011;38948;48.376;-4.312;2022-12-18T15:52:39;2.65;;;0.88;;
53064;SDS011;38948;48.376;-4.312;2022-12-18T15:55:13;4.15;;;1.25;;
53064;SDS011;38948;48.376;-4.312;2022-12-18T15:57:58;3.60;;;0.70;;
53064;SDS011;38948;48.376;-4.312;2022-12-18T16:00:24;1.90;;;0.60;;
53064;SDS011;38948;48.376;-4.312;2022-12-18T16:02:50;3.90;;;0.90;;
53064;SDS011;38948;48.376;-4.312;2022-12-18T16:05:17;4.50;;;0.75;;
53064;SDS011;38948;48.376;-4.312;2022-12-18T16:07:45;4.55;;;1.50;;
53064;SDS011;38948;48.376;-4.312;2022-12-18T16:10:12;5.03;;;1.08;;
53064;SDS011;38948;48.376;-4.312;2022-12-18T16:12:37;8.10;;;1.50;;
53064;SDS011;38948;48.376;-4.312;2022-12-18T16:15:04;8.10;;;2.10;;
53064;SDS011;38948;48.376;-4.312;2022-12-18T16:17:31;7.05;;;1.25;;
53064;SDS011;38948;48.376;-4.312;2022-12-18T16:19:57;6.90;;;1.30;;
53064;SDS011;38948;48.376;-4.312;2022-12-18T16:22:26;3.85;;;1.10;;
53064;SDS011;38948;48.376;-4.312;2022-12-18T16:24:54;8.65;;;1.85;;
53064;SDS011;38948;48.376;-4.312;2022-12-18T16:27:21;3.35;;;0.93;;
53064;SDS011;38948;48.376;-4.312;2022-12-18T16:29:48;5.03;;;0.95;;
53064;SDS011;38948;48.376;-4.312;2022-12-18T16:32:15;4.78;;;1.08;;
53064;SDS011;38948;48.376;-4.312;2022-12-18T16:34:43;6.65;;;1.10;;
53064;SDS011;38948;48.376;-4.312;2022-12-18T16:37:11;7.60;;;0.95;;
53064;SDS011;38948;48.376;-4.312;2022-12-18T16:39:38;5.15;;;1.40;;
53064;SDS011;38948;48.376;-4.312;2022-12-18T16:42:06;6.03;;;0.82;;
53064;SDS011;38948;48.376;-4.312;2022-12-18T16:44:41;8.50;;;1.40;;
53064;SDS011;38948;48.376;-4.312;2022-12-18T16:47:08;9.93;;;1.20;;
53064;SDS011;38948;48.376;-4.312;2022-12-18T16:49:34;7.63;;;1.20;;
53064;SDS011;38948;48.376;-4.312;2022-12-18T16:52:02;6.20;;;1.65;;
53064;SDS011;38948;48.376;-4.312;2022-12-18T16:54:28;8.73;;;1.42;;
53064;SDS011;38948;48.376;-4.312;2022-12-18T16:56:54;8.00;;;1.50;;